createdAt,value
2023-02-08T00:02:26.930Z,-1.26
2023-02-08T00:05:00.254Z,-1.10
2023-02-08T00:07:32.404Z,-1.21
2023-02-08T00:10:07.097Z,-1.32
2023-02-08T00:12:39.004Z,-1.25
2023-02-08T00:15:11.034Z,-1.17
2023-02-08T00:17:42.956Z,-1.63
2023-02-08T00:20:15.713Z,-1.46
2023-02-08T00:22:47.671Z,-1.48
2023-02-08T00:25:19.903Z,-1.14
2023-02-08T00:27:51.913Z,-1.07
2023-02-08T00:30:23.960Z,-1.43
2023-02-08T00:32:56.033Z,-1.35
2023-02-08T00:35:29.072Z,-1.19
2023-02-08T00:38:01.233Z,-1.56
2023-02-08T00:40:33.202Z,-1.34
2023-02-08T00:43:07.281Z,-1.01
2023-02-08T00:45:39.404Z,-1.20
2023-02-08T00:48:11.436Z,-1.15
2023-02-08T00:50:43.398Z,-1.07
2023-02-08T00:53:15.351Z,-1.41
2023-02-08T00:55:52.496Z,-1.03
2023-02-08T00:58:24.839Z,-1.34
2023-02-08T01:00:57.085Z,-1.22
2023-02-08T01:03:29.040Z,-1.23
2023-02-08T01:06:06.249Z,-1.15
2023-02-08T01:08:38.258Z,-1.53
2023-02-08T01:11:22.063Z,-1.26
2023-02-08T01:13:57.691Z,-1.11
2023-02-08T01:16:34.148Z,-1.18
2023-02-08T01:19:08.323Z,-1.24
2023-02-08T01:21:41.731Z,-1.93
2023-02-08T01:24:13.645Z,-1.33
2023-02-08T01:26:45.702Z,-1.17
2023-02-08T01:29:18.020Z,-1.34
2023-02-08T01:31:50.092Z,-1.69
2023-02-08T01:34:22.182Z,-1.54
2023-02-08T01:36:54.282Z,-1.78
2023-02-08T01:39:26.228Z,-1.67
2023-02-08T01:41:58.202Z,-1.66
2023-02-08T01:45:07.980Z,-1.35
2023-02-08T01:47:40.020Z,-1.26
2023-02-08T01:50:12.776Z,-1.28
2023-02-08T01:52:46.292Z,-1.26
2023-02-08T01:55:26.421Z,-1.26
2023-02-08T01:58:02.216Z,-1.40
2023-02-08T02:00:34.483Z,-1.55
2023-02-08T02:03:06.767Z,-1.25
2023-02-08T02:05:45.472Z,-1.16
2023-02-08T02:08:17.580Z,-1.16
2023-02-08T02:10:50.817Z,-1.16
2023-02-08T02:13:25.328Z,-1.17
2023-02-08T02:15:57.434Z,-1.24
2023-02-08T02:18:33.947Z,-1.16
2023-02-08T02:21:15.791Z,-1.16
2023-02-08T02:24:25.583Z,-1.16
2023-02-08T02:27:20.043Z,-1.20
2023-02-08T02:30:16.917Z,-1.14
2023-02-08T02:33:02.136Z,-1.19
2023-02-08T02:36:05.338Z,-1.26
2023-02-08T02:38:37.270Z,-1.19
2023-02-08T02:41:09.211Z,-1.21
2023-02-08T02:43:55.617Z,-1.36
2023-02-08T02:46:30.345Z,-1.21
2023-02-08T02:49:27.997Z,-1.20
2023-02-08T02:52:08.735Z,-1.22
2023-02-08T02:54:54.898Z,-1.17
2023-02-08T02:57:32.904Z,-1.19
2023-02-08T03:00:21.982Z,-1.14
2023-02-08T03:02:57.128Z,-1.42
2023-02-08T03:05:30.506Z,-1.11
2023-02-08T03:08:02.463Z,-1.04
2023-02-08T03:11:14.882Z,-1.08
2023-02-08T03:14:02.853Z,-1.04
2023-02-08T03:17:02.956Z,-1.02
2023-02-08T03:20:13.274Z,-1.08
2023-02-08T03:22:45.254Z,-1.15
2023-02-08T03:25:20.702Z,-1.48
2023-02-08T03:28:01.941Z,-1.08
2023-02-08T03:30:51.614Z,-1.18
2023-02-08T03:33:37.609Z,-1.18
2023-02-08T03:36:20.832Z,-1.01
2023-02-08T03:38:55.080Z,-1.13
2023-02-08T03:41:32.524Z,-1.10
2023-02-08T03:44:11.280Z,-1.02
2023-02-08T03:46:51.520Z,-1.04
2023-02-08T03:49:30.792Z,-1.12
2023-02-08T03:52:06.295Z,-1.40
2023-02-08T03:55:01.998Z,-1.18
2023-02-08T03:57:39.001Z,-1.20
2023-02-08T04:00:14.984Z,-1.33
2023-02-08T04:03:01.856Z,-1.29
2023-02-08T04:05:34.200Z,-1.37
2023-02-08T04:08:06.235Z,-1.24
2023-02-08T04:10:38.571Z,-1.29
2023-02-08T04:13:10.614Z,-1.60
2023-02-08T04:15:44.535Z,-1.71
2023-02-08T04:18:16.559Z,-1.45
2023-02-08T04:20:48.512Z,-1.49
2023-02-08T04:23:20.636Z,-1.61
2023-02-08T04:25:52.578Z,-1.47
2023-02-08T04:28:24.558Z,-1.33
2023-02-08T04:30:59.992Z,-1.07
2023-02-08T04:33:32.118Z,-1.20
2023-02-08T04:36:04.314Z,-1.19
2023-02-08T04:38:36.553Z,-1.20
2023-02-08T04:41:08.494Z,-1.74
2023-02-08T04:43:40.462Z,-1.66
2023-02-08T04:46:12.483Z,-1.70
2023-02-08T04:48:44.564Z,-1.17
2023-02-08T04:51:16.567Z,-1.18
2023-02-08T04:53:48.530Z,-1.22
2023-02-08T04:56:33.330Z,-1.03
2023-02-08T04:59:05.418Z,-1.09
2023-02-08T05:01:37.426Z,-1.16
2023-02-08T05:04:09.422Z,-1.43
2023-02-08T05:06:41.393Z,-1.06
2023-02-08T05:09:13.824Z,-1.80
2023-02-08T05:11:45.826Z,-0.98
2023-02-08T05:14:17.889Z,-1.41
2023-02-08T05:16:49.823Z,-1.22
2023-02-08T05:19:21.984Z,-1.01
2023-02-08T05:21:53.963Z,-0.95
2023-02-08T05:24:26.471Z,-1.05
2023-02-08T05:26:58.429Z,-0.94
2023-02-08T05:29:30.485Z,-0.86
2023-02-08T05:32:02.426Z,-0.86
2023-02-08T05:34:34.477Z,-0.99
2023-02-08T05:37:06.516Z,-0.90
2023-02-08T05:39:38.506Z,-0.97
2023-02-08T05:42:10.441Z,-1.05
2023-02-08T05:44:42.405Z,-0.89
2023-02-08T05:47:14.450Z,-0.98
2023-02-08T05:49:46.445Z,-0.88
2023-02-08T05:52:18.373Z,-1.05
2023-02-08T05:54:50.373Z,-1.05
2023-02-08T05:57:22.398Z,-1.04
2023-02-08T05:59:54.337Z,-1.22
2023-02-08T06:02:26.495Z,-1.26
2023-02-08T06:04:58.759Z,-1.13
2023-02-08T06:07:30.754Z,-1.42
2023-02-08T06:10:03.189Z,-1.04
2023-02-08T06:12:35.163Z,-1.20
2023-02-08T06:15:07.410Z,-0.91
2023-02-08T06:17:39.333Z,-0.89
2023-02-08T06:20:12.193Z,-0.98
2023-02-08T06:22:44.170Z,-1.02
2023-02-08T06:25:16.193Z,-1.02
2023-02-08T06:27:48.244Z,-1.06
2023-02-08T06:30:20.404Z,-0.95
2023-02-08T06:32:52.667Z,-0.85
2023-02-08T06:35:24.646Z,-0.99
2023-02-08T06:37:56.740Z,-1.25
2023-02-08T06:40:28.711Z,-1.31
2023-02-08T06:43:00.649Z,-0.96
2023-02-08T06:45:32.674Z,-1.25
2023-02-08T06:48:05.109Z,-1.02
2023-02-08T06:50:38.406Z,-0.98
2023-02-08T06:53:10.423Z,-0.91
2023-02-08T06:55:42.492Z,-0.84
2023-02-08T06:58:14.493Z,-0.85
2023-02-08T07:00:46.922Z,-0.75
2023-02-08T07:03:19.137Z,-1.02
2023-02-08T07:06:04.049Z,-0.68
2023-02-08T07:08:36.968Z,-0.83
2023-02-08T07:11:17.668Z,-0.61
2023-02-08T07:13:50.472Z,-0.61
2023-02-08T07:16:22.540Z,-0.82
2023-02-08T07:18:54.532Z,-0.63
2023-02-08T07:21:26.672Z,-0.61
2023-02-08T07:23:58.644Z,-0.71
2023-02-08T07:26:30.517Z,-0.79
2023-02-08T07:29:02.506Z,-0.58
2023-02-08T07:31:34.485Z,-0.70
2023-02-08T07:34:06.434Z,-0.70
2023-02-08T07:36:38.623Z,-0.64
2023-02-08T07:39:10.732Z,-0.35
2023-02-08T07:41:42.727Z,-0.38
2023-02-08T07:44:14.725Z,-0.66
2023-02-08T07:46:46.807Z,-0.12
2023-02-08T07:49:18.909Z,-0.10
2023-02-08T07:51:50.956Z,-0.44
2023-02-08T07:54:23.226Z,-0.35
2023-02-08T07:56:55.483Z,-0.61
2023-02-08T07:59:27.622Z,-0.52
2023-02-08T08:01:59.646Z,-0.38
2023-02-08T08:04:31.646Z,-0.15
2023-02-08T08:07:03.736Z,-0.64
2023-02-08T08:09:35.645Z,0.21
2023-02-08T08:12:07.685Z,0.18
2023-02-08T08:14:39.721Z,-0.56
2023-02-08T08:17:12.158Z,-0.47
2023-02-08T08:19:44.132Z,-0.08
2023-02-08T08:22:16.542Z,-0.17
2023-02-08T08:24:48.562Z,-0.05
2023-02-08T08:27:20.635Z,0.48
2023-02-08T08:29:52.656Z,0.19
2023-02-08T08:32:24.656Z,0.52
2023-02-08T08:34:56.798Z,0.71
2023-02-08T08:37:28.761Z,0.57
2023-02-08T08:40:01.232Z,0.71
2023-02-08T08:42:34.725Z,0.76
2023-02-08T08:45:08.007Z,0.73
2023-02-08T08:47:40.063Z,0.69
2023-02-08T08:50:12.155Z,0.98
2023-02-08T08:52:44.180Z,0.95
2023-02-08T08:55:16.220Z,1.19
2023-02-08T08:57:48.192Z,1.10
2023-02-08T09:00:21.813Z,0.97
2023-02-08T09:02:53.911Z,1.22
2023-02-08T09:05:26.033Z,1.35
2023-02-08T09:07:58.453Z,1.39
2023-02-08T09:10:31.332Z,1.42
2023-02-08T09:13:03.372Z,1.48
2023-02-08T09:15:39.954Z,1.63
2023-02-08T09:18:12.021Z,1.77
2023-02-08T09:20:44.518Z,1.52
2023-02-08T09:23:16.620Z,1.86
2023-02-08T09:25:50.128Z,1.85
2023-02-08T09:28:22.243Z,1.88
2023-02-08T09:30:54.344Z,2.01
2023-02-08T09:33:29.203Z,1.96
2023-02-08T09:36:01.115Z,2.01
2023-02-08T09:38:34.672Z,2.16
2023-02-08T09:41:09.306Z,2.41
2023-02-08T09:43:56.455Z,2.61
2023-02-08T09:46:32.707Z,2.44
2023-02-08T09:49:09.307Z,2.52
2023-02-08T09:51:50.609Z,2.34
2023-02-08T09:54:39.871Z,2.52
2023-02-08T09:57:16.907Z,2.60
2023-02-08T09:59:56.800Z,2.49
2023-02-08T10:02:31.711Z,2.44
2023-02-08T10:05:10.937Z,2.58
2023-02-08T10:07:43.443Z,2.66
2023-02-08T10:10:36.037Z,2.34
2023-02-08T10:13:40.786Z,2.83
2023-02-08T10:16:32.071Z,2.18
2023-02-08T10:19:10.040Z,2.56
2023-02-08T10:22:28.610Z,2.57
2023-02-08T10:25:19.689Z,2.57
2023-02-08T10:28:03.667Z,2.50
2023-02-08T10:30:47.888Z,2.50
2023-02-08T10:33:42.292Z,2.34
2023-02-08T10:36:19.010Z,2.07
2023-02-08T10:38:54.191Z,2.03
2023-02-08T10:41:33.961Z,2.16
2023-02-08T10:44:21.265Z,2.29
2023-02-08T10:46:57.684Z,2.27
2023-02-08T10:49:42.983Z,2.05
2023-02-08T10:52:14.930Z,2.10
2023-02-08T10:54:47.064Z,1.76
2023-02-08T10:57:25.251Z,2.16
2023-02-08T11:00:03.591Z,2.07
2023-02-08T11:02:41.708Z,1.91
2023-02-08T11:05:17.641Z,2.01
2023-02-08T11:08:06.434Z,1.86
2023-02-08T11:10:41.046Z,2.05
2023-02-08T11:13:21.048Z,1.99
2023-02-08T11:15:59.338Z,2.21
2023-02-08T11:18:41.801Z,2.28
2023-02-08T11:21:36.953Z,2.35
2023-02-08T11:24:30.322Z,2.42
2023-02-08T11:27:03.251Z,2.17
2023-02-08T11:29:35.229Z,2.17
2023-02-08T11:32:19.042Z,1.99
2023-02-08T11:34:50.973Z,2.06
2023-02-08T11:37:28.914Z,2.19
2023-02-08T11:40:04.198Z,2.07
2023-02-08T11:42:41.197Z,1.83
2023-02-08T11:45:23.502Z,2.30
2023-02-08T11:47:55.675Z,2.22
2023-02-08T11:50:31.529Z,2.15
2023-02-08T11:53:33.768Z,1.74
2023-02-08T11:56:23.759Z,2.36
2023-02-08T11:59:19.350Z,2.34
2023-02-08T12:01:51.446Z,2.11
2023-02-08T12:04:23.412Z,2.38
2023-02-08T12:07:21.622Z,2.46
2023-02-08T12:10:21.497Z,2.58
2023-02-08T12:13:00.829Z,2.50
2023-02-08T12:15:58.526Z,2.18
2023-02-08T12:19:06.564Z,2.30
2023-02-08T12:21:46.733Z,2.36
2023-02-08T12:24:23.948Z,2.51
2023-02-08T12:27:17.305Z,2.56
2023-02-08T12:29:55.041Z,2.39
2023-02-08T12:32:42.536Z,2.37
2023-02-08T12:36:03.243Z,2.37
2023-02-08T12:39:25.717Z,2.15
2023-02-08T12:42:07.265Z,2.42
2023-02-08T12:45:36.910Z,2.37
2023-02-08T12:48:11.783Z,2.79
2023-02-08T12:50:56.709Z,2.70
2023-02-08T12:53:35.588Z,2.55
2023-02-08T12:56:16.952Z,2.50
2023-02-08T12:58:59.175Z,2.28
2023-02-08T13:01:43.687Z,1.95
2023-02-08T13:04:28.018Z,2.25
2023-02-08T13:07:04.769Z,2.30
2023-02-08T13:10:12.285Z,2.13
2023-02-08T13:12:53.864Z,2.04
2023-02-08T13:15:50.828Z,2.07
2023-02-08T13:18:28.391Z,2.19
2023-02-08T13:21:16.011Z,1.82
2023-02-08T13:23:53.264Z,2.01
2023-02-08T13:26:31.773Z,1.96
2023-02-08T13:29:06.570Z,2.29
2023-02-08T13:31:42.826Z,2.23
2023-02-08T13:34:48.075Z,2.02
2023-02-08T13:37:32.440Z,1.88
2023-02-08T13:40:17.357Z,1.51
2023-02-08T13:42:58.464Z,1.50
2023-02-08T13:45:34.778Z,1.76
2023-02-08T13:48:09.057Z,1.53
2023-02-08T13:50:53.196Z,1.58
2023-02-08T13:53:40.987Z,1.62
2023-02-08T13:56:13.509Z,1.47
2023-02-08T13:58:48.305Z,1.54
2023-02-08T14:01:20.313Z,1.57
2023-02-08T14:04:07.703Z,1.57
2023-02-08T14:06:55.728Z,1.44
2023-02-08T14:09:37.546Z,1.25
2023-02-08T14:12:36.904Z,1.19
2023-02-08T14:15:15.062Z,1.22
2023-02-08T14:17:50.308Z,0.94
2023-02-08T14:20:41.127Z,1.11
2023-02-08T14:23:23.738Z,1.04
2023-02-08T14:25:59.061Z,0.95
2023-02-08T14:28:46.838Z,0.85
2023-02-08T14:31:23.447Z,0.77
2023-02-08T14:33:57.218Z,0.61
2023-02-08T14:36:35.474Z,0.42
2023-02-08T14:39:35.173Z,0.19
2023-02-08T14:42:10.336Z,0.25
2023-02-08T14:44:43.582Z,0.28
2023-02-08T14:47:37.276Z,0.18
2023-02-08T14:50:16.206Z,0.13
2023-02-08T14:52:57.593Z,0.12
2023-02-08T14:55:41.304Z,0.13
2023-02-08T14:58:22.819Z,0.05
2023-02-08T15:00:58.088Z,-0.06
2023-02-08T15:03:34.172Z,0.01
2023-02-08T15:06:22.818Z,-0.06
2023-02-08T15:08:55.955Z,-0.41
2023-02-08T15:11:31.696Z,-0.26
2023-02-08T15:14:06.289Z,-1.01
2023-02-08T15:16:43.998Z,-0.19
2023-02-08T15:19:43.657Z,-0.40
2023-02-08T15:22:18.805Z,-0.49
2023-02-08T15:25:16.743Z,-0.54
2023-02-08T15:27:55.114Z,-0.62
2023-02-08T15:30:30.246Z,-0.56
2023-02-08T15:33:08.696Z,-0.92
2023-02-08T15:35:41.616Z,-0.92
2023-02-08T15:38:19.226Z,-0.84
2023-02-08T15:41:03.589Z,-1.00
2023-02-08T15:43:37.541Z,-1.06
2023-02-08T15:46:24.035Z,-1.21
2023-02-08T15:48:59.963Z,-1.48
2023-02-08T15:51:33.890Z,-1.71
2023-02-08T15:54:06.783Z,-1.50
2023-02-08T15:56:42.448Z,-1.48
2023-02-08T15:59:22.950Z,-1.68
2023-02-08T16:01:57.642Z,-1.69
2023-02-08T16:04:29.666Z,-1.85
2023-02-08T16:07:01.745Z,-1.90
2023-02-08T16:09:33.723Z,-2.04
2023-02-08T16:12:06.570Z,-1.99
2023-02-08T16:14:52.369Z,-2.04
2023-02-08T16:17:45.458Z,-2.05
2023-02-08T16:20:29.682Z,-1.93
2023-02-08T16:23:22.146Z,-1.98
2023-02-08T16:25:54.481Z,-2.08
2023-02-08T16:28:30.160Z,-2.09
2023-02-08T16:31:04.803Z,-2.38
2023-02-08T16:33:39.888Z,-2.53
2023-02-08T16:36:23.424Z,-2.37
2023-02-08T16:39:14.187Z,-2.39
2023-02-08T16:41:49.098Z,-2.52
2023-02-08T16:44:31.014Z,-2.68
2023-02-08T16:47:27.271Z,-2.66
2023-02-08T16:49:59.194Z,-2.65
2023-02-08T16:52:31.467Z,-2.96
2023-02-08T16:55:04.472Z,-2.81
2023-02-08T16:57:43.851Z,-2.78
2023-02-08T17:00:18.951Z,-2.74
2023-02-08T17:02:51.633Z,-2.77
2023-02-08T17:05:26.928Z,-2.76
2023-02-08T17:07:59.960Z,-2.80
2023-02-08T17:10:32.934Z,-2.91
2023-02-08T17:13:20.005Z,-2.95
2023-02-08T17:15:54.410Z,-3.07
2023-02-08T17:18:26.886Z,-3.04
2023-02-08T17:21:00.320Z,-3.67
2023-02-08T17:23:32.444Z,-3.42
2023-02-08T17:26:15.930Z,-3.73
2023-02-08T17:28:50.650Z,-3.59
2023-02-08T17:31:23.609Z,-3.18
2023-02-08T17:33:58.673Z,-3.63
2023-02-08T17:36:33.173Z,-4.01
2023-02-08T17:39:06.372Z,-3.77
2023-02-08T17:41:40.277Z,-3.37
2023-02-08T17:44:13.282Z,-3.74
2023-02-08T17:46:48.292Z,-3.65
2023-02-08T17:49:20.267Z,-4.28
2023-02-08T17:51:52.277Z,-4.16
2023-02-08T17:54:24.570Z,-4.19
2023-02-08T17:56:58.988Z,-4.48
2023-02-08T17:59:31.124Z,-4.44
2023-02-08T18:02:03.257Z,-4.17
2023-02-08T18:04:36.032Z,-4.51
2023-02-08T18:07:08.071Z,-4.08
2023-02-08T18:09:40.062Z,-3.93
2023-02-08T18:12:12.183Z,-4.55
2023-02-08T18:14:44.317Z,-4.28
2023-02-08T18:17:16.321Z,-4.07
2023-02-08T18:19:48.379Z,-3.90
2023-02-08T18:22:22.134Z,-4.07
2023-02-08T18:24:55.837Z,-4.22
2023-02-08T18:27:28.262Z,-4.06
2023-02-08T18:30:00.737Z,-3.99
2023-02-08T18:32:32.692Z,-4.35
2023-02-08T18:35:07.129Z,-4.28
2023-02-08T18:37:40.252Z,-4.41
2023-02-08T18:40:12.674Z,-4.56
2023-02-08T18:42:44.854Z,-4.26
2023-02-08T18:45:17.590Z,-4.73
2023-02-08T18:47:49.590Z,-4.67
2023-02-08T18:50:21.601Z,-4.11
2023-02-08T18:52:53.818Z,-4.32
2023-02-08T18:55:25.896Z,-3.91
2023-02-08T18:57:58.019Z,-3.96
2023-02-08T19:00:29.988Z,-4.21
2023-02-08T19:03:02.098Z,-4.60
2023-02-08T19:05:38.341Z,-4.58
2023-02-08T19:08:10.774Z,-4.62
2023-02-08T19:10:44.278Z,-4.35
2023-02-08T19:13:17.030Z,-4.85
2023-02-08T19:15:49.815Z,-3.88
2023-02-08T19:18:21.865Z,-4.37
2023-02-08T19:20:54.053Z,-4.04
2023-02-08T19:23:26.086Z,-4.24
2023-02-08T19:26:03.349Z,-3.93
2023-02-08T19:28:36.099Z,-4.31
2023-02-08T19:31:15.005Z,-4.40
2023-02-08T19:33:49.632Z,-4.33
2023-02-08T19:36:25.124Z,-4.57
2023-02-08T19:38:58.789Z,-4.55
2023-02-08T19:41:39.470Z,-4.79
2023-02-08T19:44:12.693Z,-4.00
2023-02-08T19:46:49.103Z,-4.01
2023-02-08T19:49:22.013Z,-4.13
2023-02-08T19:51:54.291Z,-4.71
2023-02-08T19:54:26.438Z,-4.08
2023-02-08T19:56:58.486Z,-4.41
2023-02-08T19:59:35.311Z,-4.16
2023-02-08T20:02:11.796Z,-4.51
2023-02-08T20:04:44.087Z,-4.67
2023-02-08T20:07:16.022Z,-4.37
2023-02-08T20:09:48.304Z,-4.36
2023-02-08T20:12:21.239Z,-4.41
2023-02-08T20:14:53.876Z,-4.19
2023-02-08T20:17:25.793Z,-4.84
2023-02-08T20:19:57.668Z,-4.20
2023-02-08T20:22:29.765Z,-4.46
2023-02-08T20:25:01.848Z,-4.58
2023-02-08T20:27:33.971Z,-4.38
2023-02-08T20:30:06.530Z,-4.53
2023-02-08T20:32:42.407Z,-4.49
2023-02-08T20:35:18.050Z,-5.02
2023-02-08T20:37:50.074Z,-4.49
2023-02-08T20:40:23.035Z,-4.94
2023-02-08T20:42:55.211Z,-4.31
2023-02-08T20:45:27.344Z,-4.71
2023-02-08T20:47:59.450Z,-4.53
2023-02-08T20:50:33.479Z,-5.14
2023-02-08T20:53:05.521Z,-4.89
2023-02-08T20:55:41.728Z,-5.19
2023-02-08T20:58:13.873Z,-4.94
2023-02-08T21:00:46.561Z,-4.75
2023-02-08T21:03:19.035Z,-4.85
2023-02-08T21:05:50.991Z,-4.88
2023-02-08T21:08:23.178Z,-4.75
2023-02-08T21:10:55.296Z,-4.54
2023-02-08T21:13:27.344Z,-5.12
2023-02-08T21:15:59.458Z,-4.66
2023-02-08T21:18:31.510Z,-4.93
2023-02-08T21:21:05.242Z,-4.85
2023-02-08T21:23:38.074Z,-4.67
2023-02-08T21:26:12.372Z,-4.96
2023-02-08T21:28:45.150Z,-5.00
2023-02-08T21:31:22.493Z,-4.72
2023-02-08T21:33:54.716Z,-4.63
2023-02-08T21:36:26.694Z,-5.31
2023-02-08T21:38:59.361Z,-4.58
2023-02-08T21:41:33.690Z,-5.02
2023-02-08T21:44:08.442Z,-5.01
2023-02-08T21:46:40.550Z,-4.73
2023-02-08T21:49:31.002Z,-4.92
2023-02-08T21:52:21.718Z,-5.25
2023-02-08T21:54:54.082Z,-4.75
2023-02-08T21:57:28.895Z,-4.80
2023-02-08T22:00:01.703Z,-5.58
2023-02-08T22:02:34.189Z,-5.55
2023-02-08T22:05:06.437Z,-5.41
2023-02-08T22:07:45.868Z,-4.94
2023-02-08T22:10:21.330Z,-4.93
2023-02-08T22:12:55.020Z,-5.04
2023-02-08T22:15:29.519Z,-5.13
2023-02-08T22:18:03.367Z,-5.33
2023-02-08T22:20:35.582Z,-4.98
2023-02-08T22:23:07.575Z,-5.49
2023-02-08T22:25:40.136Z,-5.34
2023-02-08T22:28:12.177Z,-5.62
2023-02-08T22:30:48.406Z,-5.15
2023-02-08T22:33:20.807Z,-5.11
2023-02-08T22:35:52.825Z,-5.30
2023-02-08T22:38:25.057Z,-5.70
2023-02-08T22:40:57.081Z,-5.13
2023-02-08T22:43:30.113Z,-5.56
2023-02-08T22:46:02.605Z,-6.08
2023-02-08T22:48:35.367Z,-5.17
2023-02-08T22:51:15.124Z,-5.31
2023-02-08T22:53:47.592Z,-5.89
2023-02-08T22:56:19.734Z,-5.96
2023-02-08T22:58:51.760Z,-6.18
2023-02-08T23:01:23.828Z,-5.84
2023-02-08T23:03:56.015Z,-5.98
2023-02-08T23:06:28.562Z,-5.36
2023-02-08T23:09:00.556Z,-6.10
2023-02-08T23:11:33.227Z,-5.44
2023-02-08T23:14:05.191Z,-5.91
2023-02-08T23:16:37.264Z,-5.57
2023-02-08T23:19:14.598Z,-6.12
2023-02-08T23:21:47.196Z,-6.68
2023-02-08T23:24:19.398Z,-5.81
2023-02-08T23:26:51.445Z,-6.28
2023-02-08T23:29:23.473Z,-5.74
2023-02-08T23:31:55.536Z,-6.19
2023-02-08T23:34:27.631Z,-6.30
2023-02-08T23:36:59.527Z,-6.21
2023-02-08T23:39:33.684Z,-6.81
2023-02-08T23:42:06.020Z,-6.33
2023-02-08T23:44:38.011Z,-6.45
2023-02-08T23:47:10.049Z,-6.23
2023-02-08T23:49:42.229Z,-6.88
2023-02-08T23:52:14.654Z,-6.56
2023-02-08T23:54:47.033Z,-6.89
2023-02-08T23:57:19.040Z,-6.84
2023-02-08T23:59:51.266Z,-6.36
